Time;durP1;ratioP1;P1;durP2;ratioP2;P2;SDS_P1;SDS_P2;PMS_P1;PMS_P2;Temp;Humidity;BMP_temperature;BMP_pressure;BME280_temperature;BME280_humidity;BME280_pressure;Samples;Min_cycle;Max_cycle;Signal;HPM_P1;HPM_P2
2022/01/24 00:00:29;;;;;;;21.70;9.90;;;;;;;-6.49;78.52;98233.84;107600;1268;37524;-72
2022/01/24 00:03:10;;;;;;;15.60;7.90;;;;;;;-6.77;78.99;98236.71;107512;1269;46441;-73
2022/01/24 00:05:41;;;;;;;14.90;7.40;;;;;;;-6.85;79.65;98235.70;107654;1268;42390;-72
2022/01/24 00:08:13;;;;;;;14.10;6.70;;;;;;;-6.89;79.89;98228.63;107653;1270;36187;-72
2022/01/24 00:10:46;;;;;;;13.10;8.10;;;;;;;-6.92;80.16;98225.09;107622;1270;33935;-73
2022/01/24 00:14:07;;;;;;;28.90;15.40;;;;;;;-6.99;79.91;98221.38;107481;1268;53050;-73
2022/01/24 00:16:33;;;;;;;21.10;10.70;;;;;;;-7.44;79.03;98218.58;107543;1270;42476;-72
2022/01/24 00:27:30;;;;;;;10.70;5.90;;;;;;;-7.58;80.83;98228.00;107507;1268;40999;-73
2022/01/24 00:30:00;;;;;;;10.10;5.00;;;;;;;-7.59;80.92;98235.16;107541;1268;48915;-73
2022/01/24 00:32:31;;;;;;;8.10;5.00;;;;;;;-7.65;80.48;98237.55;107435;1268;41845;-73
2022/01/24 00:35:02;;;;;;;9.40;5.40;;;;;;;-7.73;80.53;98236.30;107577;1268;51707;-73
2022/01/24 00:37:34;;;;;;;13.60;6.60;;;;;;;-7.84;80.63;98233.01;107479;1268;47011;-73
2022/01/24 00:40:07;;;;;;;13.20;6.30;;;;;;;-7.94;80.47;98234.52;107597;1267;38720;-73
2022/01/24 00:42:49;;;;;;;13.50;7.20;;;;;;;-8.09;80.50;98228.67;107623;1268;37334;-73
2022/01/24 00:45:29;;;;;;;13.50;6.50;;;;;;;-8.06;81.17;98224.97;107538;1268;34274;-74
2022/01/24 00:48:25;;;;;;;14.70;7.10;;;;;;;-7.96;81.65;98225.03;107538;1268;47352;-73
2022/01/24 00:54:01;;;;;;;14.20;7.20;;;;;;;-7.94;81.67;98218.05;107543;1268;43330;-73
2022/01/24 00:56:32;;;;;;;12.80;6.20;;;;;;;-7.92;81.68;98214.61;107530;1268;43575;-73
2022/01/24 00:59:06;;;;;;;10.90;6.60;;;;;;;-7.93;81.61;98208.47;107569;1268;43838;-73
2022/01/24 01:01:37;;;;;;;13.30;6.30;;;;;;;-7.92;81.48;98210.61;107589;1268;30215;-73
2022/01/24 01:04:08;;;;;;;13.00;7.30;;;;;;;-8.04;81.11;98208.91;107526;1270;43063;-73
2022/01/24 01:06:42;;;;;;;11.70;6.00;;;;;;;-8.15;80.49;98210.93;107518;1270;31743;-73
2022/01/24 01:20:28;;;;;;;10.80;5.80;;;;;;;-8.54;81.39;98206.23;107545;1267;44592;-73
2022/01/24 01:22:59;;;;;;;10.30;5.80;;;;;;;-8.55;81.68;98209.69;107515;1268;41511;-73
2022/01/24 01:25:31;;;;;;;12.40;5.50;;;;;;;-8.54;81.90;98211.69;107527;1268;42663;-74
2022/01/24 01:28:03;;;;;;;8.60;5.20;;;;;;;-8.54;82.08;98210.50;107586;1268;28102;-73
2022/01/24 01:30:39;;;;;;;11.30;6.40;;;;;;;-8.52;82.32;98207.79;107548;1268;35022;-74
2022/01/24 01:33:18;;;;;;;12.20;5.70;;;;;;;-8.56;82.03;98210.30;107547;1267;43608;-73
2022/01/24 01:36:02;;;;;;;11.30;6.70;;;;;;;-8.75;81.62;98213.45;107570;1268;32022;-73
2022/01/24 01:38:59;;;;;;;14.40;6.20;;;;;;;-8.93;81.63;98218.63;107543;1268;48204;-73
2022/01/24 01:53:03;;;;;;;19.70;10.40;;;;;;;-8.98;82.75;98231.49;107565;1268;31139;-74
2022/01/24 01:55:38;;;;;;;16.40;8.60;;;;;;;-8.80;83.28;98236.66;107526;1268;46889;-73
2022/01/24 01:58:11;;;;;;;12.60;7.90;;;;;;;-8.74;83.37;98233.59;107546;1269;41821;-74
2022/01/24 02:00:44;;;;;;;12.80;6.10;;;;;;;-8.77;83.05;98231.81;107581;1268;42729;-74
2022/01/24 02:03:15;;;;;;;12.70;7.30;;;;;;;-8.77;83.18;98229.04;107581;1270;33384;-74
2022/01/24 02:05:47;;;;;;;12.90;6.70;;;;;;;-8.78;83.25;98224.66;107575;1268;49751;-74
2022/01/24 02:08:18;;;;;;;13.00;6.00;;;;;;;-8.75;83.25;98218.45;107523;1268;43267;-74
2022/01/24 02:10:49;;;;;;;12.10;6.60;;;;;;;-8.78;82.90;98221.38;107578;1268;34782;-74
2022/01/24 02:13:22;;;;;;;11.30;6.00;;;;;;;-8.85;82.60;98220.77;107591;1268;33728;-74
2022/01/24 02:16:01;;;;;;;13.00;5.30;;;;;;;-8.80;82.57;98220.69;107546;1268;37913;-74
2022/01/24 02:18:38;;;;;;;7.90;4.60;;;;;;;-8.76;82.46;98218.52;107545;1268;52233;-73
2022/01/24 02:21:26;;;;;;;6.40;4.10;;;;;;;-8.81;82.20;98213.27;107446;1269;50899;-73
2022/01/24 02:23:59;;;;;;;7.80;4.40;;;;;;;-8.85;82.33;98208.94;107616;1268;31034;-74
2022/01/24 02:26:31;;;;;;;10.20;4.80;;;;;;;-8.89;82.20;98208.55;107463;1268;39921;-74
2022/01/24 02:29:09;;;;;;;10.40;5.20;;;;;;;-9.01;82.11;98213.91;107524;1268;46531;-73
2022/01/24 02:31:44;;;;;;;9.50;4.60;;;;;;;-9.16;82.02;98219.31;107436;1267;163322;-74
2022/01/24 02:34:38;;;;;;;9.00;5.10;;;;;;;-9.34;81.83;98224.95;107554;1268;44789;-74
2022/01/24 02:37:11;;;;;;;10.30;5.90;;;;;;;-9.46;82.10;98221.39;107617;1268;36064;-74
2022/01/24 02:39:49;;;;;;;11.50;5.30;;;;;;;-9.41;82.39;98224.96;107569;1268;42571;-73
2022/01/24 02:53:46;;;;;;;8.70;4.00;;;;;;;-9.21;82.52;98245.73;107551;1268;34526;-74
2022/01/24 02:56:17;;;;;;;10.40;5.80;;;;;;;-9.14;82.57;98238.71;107569;1267;43543;-74
2022/01/24 02:58:48;;;;;;;12.20;5.60;;;;;;;-9.07;82.80;98239.40;107556;1267;34805;-73
2022/01/24 03:01:19;;;;;;;7.20;4.30;;;;;;;-9.02;82.48;98240.66;107478;1269;32404;-73
2022/01/24 03:03:50;;;;;;;10.50;6.50;;;;;;;-9.11;82.03;98238.30;107540;1268;44827;-73
2022/01/24 03:06:21;;;;;;;12.10;6.20;;;;;;;-9.32;81.88;98242.79;107559;1268;43163;-73
2022/01/24 03:08:51;;;;;;;11.50;6.50;;;;;;;-9.41;81.93;98251.52;107546;1268;57378;-73
2022/01/24 03:11:27;;;;;;;8.60;5.30;;;;;;;-9.42;82.12;98250.58;107484;1269;42252;-73
2022/01/24 03:13:58;;;;;;;7.40;5.20;;;;;;;-9.44;82.33;98255.50;107515;1269;43561;-73
2022/01/24 03:16:29;;;;;;;8.30;4.90;;;;;;;-9.47;82.37;98257.23;107508;1270;45020;-73
2022/01/24 03:19:00;;;;;;;10.90;6.40;;;;;;;-9.46;82.49;98253.73;107496;1267;42000;-73
2022/01/24 03:21:30;;;;;;;11.40;6.20;;;;;;;-9.40;82.88;98251.28;107549;1268;34122;-73
2022/01/24 03:24:01;;;;;;;11.30;6.20;;;;;;;-9.33;83.08;98246.94;107576;1268;44672;-74
2022/01/24 03:26:32;;;;;;;14.90;6.50;;;;;;;-9.33;82.91;98251.96;107476;1268;41842;-74
2022/01/24 03:29:04;;;;;;;9.50;5.40;;;;;;;-9.42;82.77;98255.52;107496;1268;46703;-74
2022/01/24 03:31:35;;;;;;;9.50;4.40;;;;;;;-9.52;82.85;98258.65;107531;1268;40390;-74
2022/01/24 03:34:07;;;;;;;7.50;4.40;;;;;;;-9.56;83.12;98261.84;107562;1268;46960;-74
2022/01/24 03:36:38;;;;;;;9.20;4.90;;;;;;;-9.52;83.65;98260.56;107550;1267;37757;-73
2022/01/24 03:39:10;;;;;;;9.90;4.50;;;;;;;-9.44;83.98;98262.48;107621;1268;31019;-74
2022/01/24 03:41:42;;;;;;;13.20;5.20;;;;;;;-9.41;84.08;98260.38;107549;1268;38397;-74
2022/01/24 03:44:14;;;;;;;7.40;5.00;;;;;;;-9.38;84.06;98261.55;107586;1268;50197;-74
2022/01/24 03:47:00;;;;;;;11.70;5.90;;;;;;;-9.36;84.31;98260.21;107508;1269;45281;-74
2022/01/24 03:52:21;;;;;;;10.30;5.60;;;;;;;-9.33;84.40;98267.34;107483;1268;47152;-74
2022/01/24 03:54:53;;;;;;;9.90;5.40;;;;;;;-9.29;84.31;98269.45;107567;1268;35950;-74
2022/01/24 03:57:24;;;;;;;9.80;5.10;;;;;;;-9.34;84.13;98267.73;107475;1268;36318;-74
2022/01/24 03:59:56;;;;;;;10.60;5.50;;;;;;;-9.40;83.93;98270.06;107487;1270;45228;-74
2022/01/24 04:02:34;;;;;;;10.10;5.70;;;;;;;-9.38;84.07;98271.46;107520;1269;60061;-74
2022/01/24 04:05:05;;;;;;;8.70;4.80;;;;;;;-9.35;83.93;98271.08;107609;1268;34673;-74
2022/01/24 04:07:36;;;;;;;8.70;5.20;;;;;;;-9.43;83.55;98273.41;107624;1268;34243;-74
2022/01/24 04:10:09;;;;;;;10.20;5.20;;;;;;;-9.62;83.22;98278.20;107452;1270;44838;-73
2022/01/24 04:12:41;;;;;;;9.40;5.90;;;;;;;-9.63;83.62;98276.06;107664;1270;30430;-73
2022/01/24 04:15:26;;;;;;;11.50;6.20;;;;;;;-9.59;84.04;98278.31;107615;1270;39400;-74
2022/01/24 04:18:13;;;;;;;11.20;6.10;;;;;;;-9.52;84.27;98275.74;107495;1270;43884;-74
2022/01/24 04:23:34;;;;;;;10.20;6.10;;;;;;;-9.60;84.25;98280.63;107568;1268;43777;-74
2022/01/24 04:26:05;;;;;;;10.60;5.90;;;;;;;-9.57;84.31;98282.13;107625;1268;34001;-74
2022/01/24 04:28:36;;;;;;;9.20;5.40;;;;;;;-9.57;84.27;98284.89;107443;1268;64372;-74
2022/01/24 04:31:07;;;;;;;10.90;5.60;;;;;;;-9.64;84.18;98283.32;107515;1268;33937;-74
2022/01/24 04:33:38;;;;;;;9.40;4.80;;;;;;;-9.67;84.17;98282.98;107584;1270;34440;-74
2022/01/24 04:36:09;;;;;;;10.70;5.60;;;;;;;-9.71;84.03;98285.88;107580;1268;48911;-74
2022/01/24 04:38:40;;;;;;;10.10;5.00;;;;;;;-9.81;83.77;98289.13;107558;1270;44757;-74
2022/01/24 04:41:18;;;;;;;8.40;4.80;;;;;;;-10.04;83.41;98295.25;107564;1270;38597;-74
2022/01/24 04:44:04;;;;;;;11.70;6.30;;;;;;;-10.11;83.77;98299.00;107492;1270;45709;-74
2022/01/24 04:46:57;;;;;;;10.00;6.10;;;;;;;-10.09;83.88;98302.45;107584;1268;41517;-74
2022/01/24 04:52:24;;;;;;;11.30;5.60;;;;;;;-9.96;84.41;98303.21;107517;1269;43398;-74
2022/01/24 04:54:55;;;;;;;10.30;4.90;;;;;;;-9.92;84.56;98300.84;107554;1268;36862;-74
2022/01/24 04:57:28;;;;;;;9.70;4.60;;;;;;;-9.86;84.56;98299.60;107588;1267;31309;-74
2022/01/24 05:00:07;;;;;;;10.60;5.80;;;;;;;-9.81;84.82;98301.16;107538;1270;40803;-73
2022/01/24 05:02:38;;;;;;;8.40;4.80;;;;;;;-9.79;84.67;98299.94;107549;1268;36730;-73
2022/01/24 05:05:15;;;;;;;9.50;4.80;;;;;;;-9.90;84.44;98300.37;107587;1270;33754;-73
2022/01/24 05:07:47;;;;;;;7.50;4.40;;;;;;;-10.04;84.11;98299.13;107449;1268;52043;-74
2022/01/24 05:10:24;;;;;;;12.20;6.30;;;;;;;-10.17;84.24;98300.05;107532;1268;45048;-74
2022/01/24 05:21:43;;;;;;;13.40;6.40;;;;;;;-10.03;84.82;98307.09;107464;1268;42903;-74
2022/01/24 05:24:14;;;;;;;17.00;7.00;;;;;;;-10.01;84.91;98308.02;107568;1268;32849;-74
2022/01/24 05:26:45;;;;;;;12.50;6.30;;;;;;;-9.96;84.97;98304.77;107465;1268;43233;-74
2022/01/24 05:29:16;;;;;;;14.50;6.20;;;;;;;-9.85;85.09;98307.08;107503;1268;45390;-74
2022/01/24 05:31:48;;;;;;;11.00;5.70;;;;;;;-9.80;84.97;98311.33;107516;1268;33237;-73
2022/01/24 05:34:19;;;;;;;10.00;5.80;;;;;;;-9.79;84.76;98306.12;107451;1270;44348;-74
2022/01/24 05:36:50;;;;;;;8.50;5.80;;;;;;;-9.77;84.89;98304.61;107540;1270;32476;-74
2022/01/24 05:39:21;;;;;;;13.00;6.10;;;;;;;-9.73;85.19;98309.64;107519;1270;32517;-74
2022/01/24 05:41:52;;;;;;;8.60;5.30;;;;;;;-9.71;85.33;98314.25;107519;1269;33793;-74
2022/01/24 05:44:23;;;;;;;11.70;5.70;;;;;;;-9.72;85.23;98313.97;107548;1268;42618;-74
2022/01/24 05:46:54;;;;;;;10.30;5.60;;;;;;;-9.75;85.06;98319.14;107542;1270;41141;-74
2022/01/24 05:49:25;;;;;;;12.00;6.90;;;;;;;-9.70;85.24;98321.89;107550;1268;51408;-74
2022/01/24 05:51:56;;;;;;;12.90;5.60;;;;;;;-9.68;84.98;98320.39;107517;1270;45865;-74
2022/01/24 05:54:30;;;;;;;9.50;5.40;;;;;;;-9.68;85.04;98323.45;107560;1268;42692;-74
2022/01/24 05:57:01;;;;;;;14.50;6.90;;;;;;;-9.60;85.35;98328.36;107568;1268;41419;-73
2022/01/24 05:59:32;;;;;;;12.70;5.50;;;;;;;-9.57;84.88;98324.91;107446;1268;44015;-74
2022/01/24 06:02:04;;;;;;;15.20;6.00;;;;;;;-9.61;84.96;98325.81;107501;1268;41969;-74
2022/01/24 06:04:35;;;;;;;11.40;5.60;;;;;;;-9.50;85.15;98324.10;107500;1268;38347;-74
2022/01/24 06:07:06;;;;;;;12.00;5.40;;;;;;;-9.33;85.27;98324.83;107558;1268;43908;-73
2022/01/24 06:09:38;;;;;;;9.00;3.50;;;;;;;-9.25;85.37;98319.34;107508;1268;43443;-74
2022/01/24 06:12:12;;;;;;;7.40;3.40;;;;;;;-9.12;85.33;98322.13;107517;1268;41150;-73
2022/01/24 06:14:44;;;;;;;12.40;4.70;;;;;;;-8.96;85.57;98320.44;107667;1268;47982;-74
2022/01/24 06:17:17;;;;;;;11.80;7.00;;;;;;;-8.91;85.24;98324.20;107614;1268;37840;-74
2022/01/24 06:19:48;;;;;;;11.50;6.10;;;;;;;-9.06;84.56;98324.88;107507;1269;46409;-74
2022/01/24 06:22:20;;;;;;;17.30;7.80;;;;;;;-9.28;83.62;98323.95;107497;1268;45610;-73
2022/01/24 06:24:51;;;;;;;13.90;6.40;;;;;;;-9.55;83.13;98324.73;107520;1268;41030;-74
2022/01/24 06:27:22;;;;;;;11.00;5.40;;;;;;;-9.67;83.54;98327.50;107475;1268;44508;-74
2022/01/24 06:29:53;;;;;;;11.10;5.20;;;;;;;-9.69;84.14;98331.25;107416;1270;39033;-74
2022/01/24 06:32:24;;;;;;;10.50;6.00;;;;;;;-9.59;84.80;98339.36;107629;1268;40209;-74
2022/01/24 06:34:55;;;;;;;12.70;6.50;;;;;;;-9.53;84.87;98343.99;107456;1271;44967;-74
2022/01/24 06:37:26;;;;;;;13.20;7.40;;;;;;;-9.45;85.03;98351.75;107547;1268;49603;-74
2022/01/24 06:39:57;;;;;;;16.40;7.90;;;;;;;-9.35;84.95;98351.39;107560;1270;35211;-74
2022/01/24 06:42:28;;;;;;;17.90;9.10;;;;;;;-9.35;84.51;98357.35;107529;1270;47083;-74
2022/01/24 06:44:59;;;;;;;13.40;7.50;;;;;;;-9.39;84.29;98357.67;107508;1270;34071;-74
2022/01/24 06:47:30;;;;;;;18.00;9.40;;;;;;;-9.38;84.18;98356.58;107473;1271;35472;-74
2022/01/24 06:50:01;;;;;;;27.10;13.40;;;;;;;-9.23;84.10;98355.98;107538;1268;36341;-74
2022/01/24 06:52:32;;;;;;;21.10;11.60;;;;;;;-9.09;83.52;98358.70;107603;1268;36165;-73
2022/01/24 06:55:03;;;;;;;14.20;7.50;;;;;;;-8.95;83.00;98357.20;107437;1269;46697;-73
2022/01/24 06:57:35;;;;;;;13.50;6.40;;;;;;;-8.58;83.02;98358.67;107502;1268;32995;-73
2022/01/24 07:00:08;;;;;;;12.40;6.20;;;;;;;-8.21;82.98;98356.04;107503;1268;57728;-73
2022/01/24 07:02:39;;;;;;;9.30;5.50;;;;;;;-7.93;82.89;98363.81;107584;1270;42258;-73
2022/01/24 07:05:10;;;;;;;11.50;5.10;;;;;;;-7.66;82.32;98363.02;107574;1270;32591;-73
2022/01/24 07:07:41;;;;;;;10.90;5.20;;;;;;;-7.45;82.00;98362.56;107609;1270;33972;-73
2022/01/24 07:10:13;;;;;;;11.80;6.60;;;;;;;-7.16;81.80;98361.77;107550;1270;44573;-73
2022/01/24 07:12:46;;;;;;;11.30;6.70;;;;;;;-6.85;81.54;98363.59;107485;1270;41880;-73
2022/01/24 07:15:19;;;;;;;10.00;5.90;;;;;;;-6.57;81.35;98366.77;107561;1271;48990;-73
2022/01/24 07:18:12;;;;;;;30.20;15.30;;;;;;;-5.98;81.16;98362.78;107531;1268;39195;-73
2022/01/24 07:20:43;;;;;;;22.70;12.00;;;;;;;-5.71;80.23;98365.25;107663;1268;32622;-73
2022/01/24 07:23:14;;;;;;;22.70;10.40;;;;;;;-5.15;80.08;98366.58;107602;1270;38367;-73
2022/01/24 07:25:46;;;;;;;20.10;10.40;;;;;;;-4.62;79.61;98362.45;107520;1270;36457;-73
2022/01/24 07:28:18;;;;;;;18.00;10.30;;;;;;;-4.02;79.03;98363.13;107567;1268;36119;-73
2022/01/24 07:30:49;;;;;;;19.90;11.90;;;;;;;-3.63;77.63;98363.70;107485;1269;40708;-74
2022/01/24 07:33:20;;;;;;;22.10;12.00;;;;;;;-3.58;76.60;98363.84;107558;1268;34762;-73
2022/01/24 07:35:51;;;;;;;15.80;9.60;;;;;;;-3.57;76.03;98361.08;107602;1268;44710;-73
2022/01/24 07:38:22;;;;;;;19.00;10.50;;;;;;;-3.35;75.61;98356.80;107488;1271;44806;-73
2022/01/24 07:40:55;;;;;;;15.80;9.50;;;;;;;-3.39;75.09;98357.44;107530;1269;37613;-73
2022/01/24 07:43:26;;;;;;;13.10;8.20;;;;;;;-2.79;76.13;98354.80;107645;1270;46972;-73
2022/01/24 07:45:57;;;;;;;16.70;8.40;;;;;;;-2.20;75.00;98358.61;107458;1270;40996;-73
2022/01/24 07:48:28;;;;;;;11.30;7.70;;;;;;;-1.98;73.78;98353.27;107630;1268;29377;-74
2022/01/24 07:50:59;;;;;;;26.30;16.50;;;;;;;-1.62;73.47;98347.39;107464;1269;42641;-73
2022/01/24 07:53:30;;;;;;;17.50;11.00;;;;;;;-1.22;73.24;98349.73;107553;1269;58607;-73
2022/01/24 07:56:01;;;;;;;14.20;8.60;;;;;;;-0.86;72.67;98350.40;107562;1270;36321;-73
2022/01/24 07:58:33;;;;;;;12.80;6.90;;;;;;;-0.70;71.42;98348.33;107560;1268;44225;-73
2022/01/24 08:01:03;;;;;;;11.00;5.90;;;;;;;-1.00;70.15;98352.58;107603;1268;43503;-73
2022/01/24 08:03:35;;;;;;;10.10;5.60;;;;;;;-1.09;70.43;98357.96;107584;1268;43380;-73
2022/01/24 08:06:06;;;;;;;12.10;5.80;;;;;;;-0.94;70.54;98359.19;107493;1268;43524;-73
2022/01/24 08:08:37;;;;;;;10.90;5.80;;;;;;;-1.05;68.97;98364.21;107563;1270;48687;-73
2022/01/24 08:11:09;;;;;;;13.30;6.50;;;;;;;-1.61;67.97;98361.39;107524;1268;42365;-73
2022/01/24 08:13:40;;;;;;;10.40;5.90;;;;;;;-2.24;68.05;98368.81;107598;1268;32569;-73
2022/01/24 08:16:11;;;;;;;9.10;5.30;;;;;;;-2.30;68.22;98366.84;107581;1268;34049;-73
2022/01/24 08:18:42;;;;;;;9.30;5.30;;;;;;;-2.32;68.32;98368.15;107651;1268;37980;-73
2022/01/24 08:21:14;;;;;;;6.70;4.70;;;;;;;-2.20;68.22;98363.55;107681;1268;35521;-73
2022/01/24 08:23:45;;;;;;;11.50;5.70;;;;;;;-2.07;67.85;98362.41;107553;1268;42435;-73
2022/01/24 08:26:16;;;;;;;9.90;5.10;;;;;;;-2.07;67.65;98361.41;107547;1268;37426;-72
2022/01/24 08:28:47;;;;;;;8.00;5.00;;;;;;;-1.93;67.95;98359.63;107498;1268;42420;-73
2022/01/24 08:31:19;;;;;;;9.70;6.20;;;;;;;-1.95;67.08;98363.62;107600;1268;38699;-73
2022/01/24 08:33:51;;;;;;;13.70;7.60;;;;;;;-2.06;66.59;98362.23;107509;1270;45852;-73
2022/01/24 08:36:22;;;;;;;11.30;5.80;;;;;;;-2.06;66.80;98365.77;107644;1268;35707;-73
2022/01/24 08:38:53;;;;;;;12.10;6.70;;;;;;;-2.16;66.86;98357.63;107632;1270;41006;-73
2022/01/24 08:41:29;;;;;;;11.10;6.10;;;;;;;-2.26;66.15;98362.63;107459;1268;47225;-73
2022/01/24 08:44:17;;;;;;;10.20;5.10;;;;;;;-2.64;65.89;98361.77;107550;1268;35396;-73
2022/01/24 08:46:49;;;;;;;10.80;6.10;;;;;;;-2.79;66.14;98363.40;107515;1268;40800;-73
2022/01/24 08:49:20;;;;;;;10.00;6.20;;;;;;;-2.84;66.03;98361.63;107537;1270;37738;-73
2022/01/24 08:51:51;;;;;;;13.10;6.70;;;;;;;-2.94;65.92;98360.88;107543;1268;39299;-72
2022/01/24 08:54:23;;;;;;;10.20;6.30;;;;;;;-3.07;65.94;98367.24;107594;1269;29309;-73
2022/01/24 08:56:54;;;;;;;12.80;7.00;;;;;;;-3.09;66.13;98366.70;107555;1269;42362;-72
2022/01/24 08:59:25;;;;;;;11.30;6.70;;;;;;;-3.25;65.29;98362.55;107630;1268;34391;-72
2022/01/24 09:01:56;;;;;;;13.50;7.90;;;;;;;-3.59;65.59;98362.34;107509;1268;44167;-73
2022/01/24 09:04:26;;;;;;;10.40;6.70;;;;;;;-3.65;66.28;98367.05;107546;1271;40990;-73
2022/01/24 09:07:00;;;;;;;10.90;6.80;;;;;;;-3.48;66.47;98366.13;107592;1268;40858;-72
2022/01/24 09:09:31;;;;;;;13.80;7.00;;;;;;;-3.51;66.26;98369.17;107540;1270;32241;-73
2022/01/24 09:12:04;;;;;;;14.00;7.60;;;;;;;-3.43;66.76;98371.06;107514;1268;34893;-72
2022/01/24 09:14:35;;;;;;;13.60;7.10;;;;;;;-3.31;66.98;98369.16;107473;1271;41318;-72
2022/01/24 09:17:06;;;;;;;11.80;6.70;;;;;;;-3.25;66.72;98372.77;107643;1268;32837;-72
2022/01/24 09:19:37;;;;;;;12.60;6.70;;;;;;;-3.14;66.82;98372.91;107517;1269;47006;-72
2022/01/24 09:22:08;;;;;;;16.40;8.50;;;;;;;-3.06;66.61;98373.09;107472;1271;42861;-72
2022/01/24 09:24:39;;;;;;;16.40;8.50;;;;;;;-3.13;66.30;98369.70;107545;1270;36909;-72
2022/01/24 09:27:10;;;;;;;14.20;9.10;;;;;;;-3.10;66.40;98371.07;107493;1271;38767;-72
2022/01/24 09:29:41;;;;;;;19.40;8.80;;;;;;;-3.07;66.51;98369.13;107524;1268;42910;-72
2022/01/24 09:32:13;;;;;;;13.10;7.90;;;;;;;-3.10;66.67;98371.81;107627;1267;42601;-73
2022/01/24 09:34:44;;;;;;;13.20;6.90;;;;;;;-3.06;66.49;98373.09;107683;1268;38725;-72
2022/01/24 09:37:15;;;;;;;14.20;7.90;;;;;;;-2.93;67.08;98372.45;107573;1268;41963;-72
2022/01/24 09:39:46;;;;;;;15.40;8.00;;;;;;;-2.76;66.81;98374.13;107508;1271;39410;-74
2022/01/24 09:42:17;;;;;;;13.00;7.50;;;;;;;-2.65;67.19;98376.08;107478;1268;42200;-73
2022/01/24 09:44:49;;;;;;;11.50;6.90;;;;;;;-2.40;67.02;98378.77;107659;1268;40809;-72
2022/01/24 09:47:20;;;;;;;15.30;9.20;;;;;;;-2.31;66.27;98379.10;107567;1271;35442;-73
2022/01/24 09:49:52;;;;;;;14.90;8.00;;;;;;;-2.26;66.30;98379.23;107532;1268;34397;-72
2022/01/24 09:52:23;;;;;;;16.80;8.20;;;;;;;-2.07;66.20;98378.54;107547;1268;38809;-72
2022/01/24 09:54:54;;;;;;;13.70;7.70;;;;;;;-2.16;65.36;98384.61;107568;1268;34471;-72
2022/01/24 09:57:25;;;;;;;13.30;8.30;;;;;;;-2.18;65.46;98384.31;107546;1270;35752;-72
2022/01/24 09:59:56;;;;;;;15.10;8.40;;;;;;;-2.09;65.54;98384.43;107518;1268;43819;-72
2022/01/24 10:02:27;;;;;;;14.80;8.20;;;;;;;-1.93;65.45;98384.38;107507;1268;39665;-72
2022/01/24 10:05:16;;;;;;;15.20;8.70;;;;;;;-1.94;64.77;98380.67;107557;1268;34254;-72
2022/01/24 10:07:54;;;;;;;16.40;8.80;;;;;;;-2.05;64.88;98381.83;107568;1268;39127;-72
2022/01/24 10:10:38;;;;;;;15.00;7.90;;;;;;;-2.04;65.25;98381.23;107532;1268;46253;-72
2022/01/24 10:16:28;;;;;;;18.70;9.60;;;;;;;-1.88;64.41;98369.16;107578;1268;38349;-72
2022/01/24 10:19:05;;;;;;;14.30;9.20;;;;;;;-2.07;63.45;98370.73;107437;1268;44265;-72
2022/01/24 10:21:41;;;;;;;13.70;7.70;;;;;;;-2.34;63.53;98367.81;107542;1269;42520;-72
2022/01/24 10:24:14;;;;;;;15.20;8.50;;;;;;;-2.49;63.23;98361.85;107615;1268;32465;-72
2022/01/24 10:26:45;;;;;;;17.50;8.30;;;;;;;-2.66;63.40;98357.48;107520;1268;41402;-74
2022/01/24 10:29:16;;;;;;;20.50;10.50;;;;;;;-2.66;63.94;98353.34;107498;1268;34909;-73
2022/01/24 10:31:51;;;;;;;19.60;9.10;;;;;;;-2.65;64.06;98352.67;107518;1268;34828;-73
2022/01/24 10:34:33;;;;;;;15.90;9.60;;;;;;;-2.58;63.93;98353.15;107573;1268;33941;-72
2022/01/24 10:37:05;;;;;;;18.50;9.00;;;;;;;-2.46;64.25;98353.23;107552;1268;51366;-72
2022/01/24 10:39:54;;;;;;;20.90;9.80;;;;;;;-2.35;64.10;98352.46;107541;1268;39109;-72
2022/01/24 10:42:52;;;;;;;19.50;9.80;;;;;;;-2.28;64.17;98349.65;107441;1270;48372;-72
2022/01/24 10:45:27;;;;;;;17.40;8.60;;;;;;;-2.15;64.20;98345.20;107518;1268;31220;-73
2022/01/24 10:47:58;;;;;;;19.60;11.10;;;;;;;-1.86;64.38;98345.74;107478;1271;33739;-72
2022/01/24 10:50:31;;;;;;;25.00;11.50;;;;;;;-1.77;63.49;98344.68;107541;1271;32631;-72
2022/01/24 10:53:16;;;;;;;19.70;9.70;;;;;;;-1.79;63.59;98341.59;107558;1271;31111;-72
2022/01/24 10:55:47;;;;;;;15.40;9.20;;;;;;;-1.66;63.19;98340.40;107474;1270;43097;-73
2022/01/24 10:58:18;;;;;;;17.00;9.20;;;;;;;-1.78;62.87;98335.54;107468;1271;32225;-72
2022/01/24 11:00:50;;;;;;;18.30;9.10;;;;;;;-1.88;62.60;98336.02;107470;1268;28629;-73
2022/01/24 11:03:22;;;;;;;14.40;9.00;;;;;;;-1.93;63.04;98333.09;107622;1267;29903;-72
2022/01/24 11:05:55;;;;;;;16.70;8.60;;;;;;;-1.88;63.30;98329.33;107477;1268;36383;-72
2022/01/24 11:08:28;;;;;;;17.40;8.30;;;;;;;-1.59;64.12;98324.02;107517;1268;40953;-72
2022/01/24 11:10:59;;;;;;;14.40;8.70;;;;;;;-1.30;64.16;98319.51;107478;1268;32202;-72
2022/01/24 11:13:31;;;;;;;18.40;9.70;;;;;;;-1.08;64.33;98317.66;107460;1271;33847;-72
2022/01/24 11:16:03;;;;;;;21.20;10.30;;;;;;;-0.88;63.42;98312.09;107479;1268;38894;-72
2022/01/24 11:18:35;;;;;;;16.60;9.60;;;;;;;-1.08;62.59;98306.94;107471;1268;32463;-72
2022/01/24 11:21:12;;;;;;;17.90;10.10;;;;;;;-1.05;63.19;98305.40;107410;1268;47838;-72
2022/01/24 11:23:49;;;;;;;20.50;10.50;;;;;;;-0.89;63.33;98296.18;107588;1268;32379;-72
2022/01/24 11:26:20;;;;;;;20.60;11.40;;;;;;;-0.64;63.56;98289.16;107585;1268;33779;-72
2022/01/24 11:28:52;;;;;;;19.40;10.60;;;;;;;-0.39;63.53;98287.30;107462;1268;49365;-72
2022/01/24 11:31:29;;;;;;;25.70;12.00;;;;;;;-0.27;62.90;98286.50;107466;1268;38212;-72
2022/01/24 11:34:06;;;;;;;20.00;10.60;;;;;;;-0.28;62.78;98281.71;107474;1268;33363;-72
2022/01/24 11:36:42;;;;;;;19.80;10.40;;;;;;;-0.16;62.60;98279.93;107516;1268;33772;-72
2022/01/24 11:39:21;;;;;;;18.20;9.90;;;;;;;-0.04;62.84;98276.14;107591;1268;31970;-72
2022/01/24 11:41:52;;;;;;;16.80;10.80;;;;;;;0.05;62.24;98272.55;107553;1268;33766;-72
2022/01/24 11:44:27;;;;;;;15.90;10.80;;;;;;;0.07;61.91;98270.42;107487;1271;35419;-72
2022/01/24 11:46:59;;;;;;;30.80;13.00;;;;;;;0.10;62.02;98270.08;107481;1268;45125;-72
2022/01/24 11:49:36;;;;;;;22.60;11.70;;;;;;;0.09;61.42;98266.34;107427;1268;45496;-72
2022/01/24 11:52:12;;;;;;;16.40;9.90;;;;;;;0.22;61.96;98269.07;107465;1271;34279;-71
2022/01/24 11:54:53;;;;;;;17.90;9.80;;;;;;;0.35;61.23;98263.81;107574;1268;42453;-71
2022/01/24 11:57:27;;;;;;;21.90;10.60;;;;;;;0.27;60.80;98262.95;107489;1268;34591;-72
2022/01/24 12:00:20;;;;;;;17.10;8.60;;;;;;;0.27;61.24;98262.79;107502;1268;42520;-72
2022/01/24 12:02:53;;;;;;;18.90;10.20;;;;;;;0.28;60.97;98262.42;107592;1268;35540;-72
2022/01/24 12:05:26;;;;;;;16.60;9.60;;;;;;;0.16;60.52;98259.13;107519;1268;40908;-72
2022/01/24 12:07:59;;;;;;;20.90;11.80;;;;;;;-0.04;59.78;98253.88;107446;1271;41655;-72
2022/01/24 12:10:45;;;;;;;24.40;12.90;;;;;;;-0.31;59.83;98250.67;107409;1268;46008;-72
2022/01/24 12:13:22;;;;;;;25.20;15.10;;;;;;;-0.49;60.04;98245.20;107423;1268;49274;-72
2022/01/24 12:16:09;;;;;;;30.40;15.80;;;;;;;-0.66;59.95;98241.08;107492;1271;34839;-72
2022/01/24 12:19:05;;;;;;;31.30;17.60;;;;;;;-0.95;59.86;98247.19;107598;1270;30400;-72
2022/01/24 12:21:39;;;;;;;32.30;17.40;;;;;;;-0.97;60.93;98247.13;107457;1271;40035;-72
2022/01/24 12:24:12;;;;;;;31.70;17.40;;;;;;;-0.91;60.55;98247.08;107464;1268;34430;-71
2022/01/24 12:26:47;;;;;;;32.90;17.10;;;;;;;-0.92;60.73;98251.67;107567;1268;36236;-72
2022/01/24 12:29:21;;;;;;;24.60;13.30;;;;;;;-0.75;61.13;98246.44;107522;1271;35556;-72
2022/01/24 12:31:55;;;;;;;31.40;17.80;;;;;;;-0.71;60.66;98250.10;107445;1268;31225;-71
2022/01/24 12:34:32;;;;;;;29.10;15.60;;;;;;;-0.76;60.48;98250.66;107481;1268;41522;-71
2022/01/24 12:37:22;;;;;;;26.00;14.60;;;;;;;-0.69;60.63;98249.26;107558;1266;41891;-71
2022/01/24 12:40:03;;;;;;;21.90;12.30;;;;;;;-0.67;60.41;98253.00;107456;1268;43616;-71
2022/01/24 12:42:52;;;;;;;22.20;13.90;;;;;;;-0.77;59.88;98255.85;107568;1268;31310;-71
2022/01/24 12:48:16;;;;;;;25.40;12.90;;;;;;;-0.89;59.60;98252.97;107558;1268;48965;-71
2022/01/24 12:50:51;;;;;;;23.30;12.70;;;;;;;-0.94;59.49;98255.98;107465;1270;34480;-72
2022/01/24 12:53:22;;;;;;;26.80;13.30;;;;;;;-0.74;60.15;98254.48;107496;1270;42791;-71
2022/01/24 12:56:02;;;;;;;22.90;12.20;;;;;;;-0.56;59.66;98256.36;107522;1268;33825;-72